TimeCST,TemperatureF,Dew PointF,Humidity,Sea Level PressureIn,VisibilityMPH,Wind Direction,Wind SpeedMPH,Gust SpeedMPH,PrecipitationIn,Events,Conditions,WindDirDegrees,DateUTC
12:53 AM,44.1,35.1,71,29.95,10.0,ESE,5.8,-,N/A,,Clear,120,2012-11-26 06:53:00
1:53 AM,43.0,35.1,74,29.95,10.0,ESE,5.8,-,N/A,,Clear,120,2012-11-26 07:53:00
2:53 AM,43.0,35.1,74,29.95,10.0,ESE,5.8,-,N/A,,Partly Cloudy,120,2012-11-26 08:53:00
3:53 AM,45.0,36.0,71,29.95,10.0,Calm,Calm,-,N/A,,Overcast,0,2012-11-26 09:53:00
4:53 AM,45.0,36.0,71,29.96,10.0,ESE,5.8,-,N/A,,Mostly Cloudy,120,2012-11-26 10:53:00
5:53 AM,45.0,36.0,71,29.97,10.0,SSE,4.6,-,N/A,,Overcast,160,2012-11-26 11:53:00
6:53 AM,46.0,36.0,68,29.99,10.0,SSE,5.8,-,N/A,,Overcast,150,2012-11-26 12:53:00
7:53 AM,46.9,36.0,66,30.00,10.0,Calm,Calm,-,N/A,,Overcast,0,2012-11-26 13:53:00
8:53 AM,48.0,37.0,66,30.02,10.0,SE,3.5,-,N/A,,Overcast,140,2012-11-26 14:53:00
9:53 AM,50.0,37.9,63,30.04,10.0,ENE,3.5,-,N/A,,Overcast,70,2012-11-26 15:53:00
10:53 AM,48.9,39.9,71,30.04,10.0,NNE,8.1,-,N/A,,Overcast,20,2012-11-26 16:53:00
11:53 AM,46.9,39.0,74,30.05,10.0,NNE,6.9,-,N/A,,Overcast,20,2012-11-26 17:53:00
12:53 PM,46.0,37.9,73,30.05,10.0,North,4.6,-,0.00,,Overcast,10,2012-11-26 18:53:00
1:53 PM,44.1,41.0,89,30.06,4.0,North,4.6,-,0.00,Rain,Light Rain,360,2012-11-26 19:53:00
2:53 PM,43.0,37.9,82,30.09,10.0,North,8.1,-,0.01,,Overcast,10,2012-11-26 20:53:00
3:53 PM,42.1,36.0,79,30.13,10.0,North,5.8,-,0.00,Rain,Light Rain,10,2012-11-26 21:53:00
4:53 PM,41.0,36.0,82,30.18,10.0,North,9.2,-,N/A,,Overcast,360,2012-11-26 22:53:00
5:53 PM,41.0,35.1,79,30.22,10.0,North,10.4,16.1,0.00,Rain,Light Rain,10,2012-11-26 23:53:00
6:53 PM,39.9,30.9,70,30.26,10.0,NNE,12.7,24.2,N/A,,Overcast,20,2012-11-27 00:53:00
7:53 PM,39.9,28.0,63,30.29,10.0,North,11.5,18.4,N/A,,Overcast,10,2012-11-27 01:53:00
8:11 PM,37.4,30.2,75,30.29,5.0,North,11.5,19.6,0.01,Rain,Rain,10,2012-11-27 02:11:00
8:53 PM,37.0,30.9,79,30.32,10.0,NNE,8.1,-,0.02,,Overcast,20,2012-11-27 02:53:00
9:53 PM,37.0,30.0,76,30.32,10.0,North,6.9,-,N/A,,Overcast,10,2012-11-27 03:53:00
10:53 PM,37.0,30.0,76,30.33,10.0,North,5.8,-,N/A,,Overcast,360,2012-11-27 04:53:00
11:53 PM,37.0,30.0,76,30.34,10.0,North,5.8,-,N/A,,Overcast,350,2012-11-27 05:53:00